Time;durP1;ratioP1;P1;durP2;ratioP2;P2;SDS_P1;SDS_P2;PMS_P1;PMS_P2;Temp;Humidity;BMP_temperature;BMP_pressure;BME280_temperature;BME280_humidity;BME280_pressure;Samples;Min_cycle;Max_cycle;Signal;HPM_P1;HPM_P2
2023/07/28 00:00:37;;;;;;;2.40;0.80;;;;;;;;;;106975;1258;23132;-86
2023/07/28 00:03:23;;;;;;;2.20;1.20;;;;;;;;;;107023;1274;24308;-79
2023/07/28 00:05:53;;;;;;;5.90;2.10;;;;;;;;;;106967;1274;25255;-82
2023/07/28 00:08:30;;;;;;;8.20;3.50;;;;;;;;;;106998;1274;23092;-84
2023/07/28 00:11:17;;;;;;;6.40;2.10;;;;;;;;;;107185;1266;22564;-80
2023/07/28 00:13:54;;;;;;;3.50;1.40;;;;;;;;;;107197;1274;24363;-79
2023/07/28 00:16:21;;;;;;;2.90;1.10;;;;;;;;;;107001;1274;23901;-79
2023/07/28 00:18:51;;;;;;;3.20;1.30;;;;;;;;;;106995;1274;24318;-83
2023/07/28 00:21:27;;;;;;;3.10;1.10;;;;;;;;;;107000;1267;24197;-82
2023/07/28 00:23:53;;;;;;;3.30;1.40;;;;;;;;;;106982;1274;22595;-79
2023/07/28 00:26:24;;;;;;;2.60;1.30;;;;;;;;;;107007;1274;22504;-80
2023/07/28 00:28:50;;;;;;;3.80;1.60;;;;;;;;;;106972;1274;25343;-83
2023/07/28 00:31:17;;;;;;;3.80;1.40;;;;;;;;;;106956;1274;22986;-85
2023/07/28 00:33:54;;;;;;;;;;;;;;;;;;;;;
2023/07/28 00:36:21;;;;;;;3.20;1.30;;;;;;;;;;107089;1274;25236;-84
2023/07/28 00:38:48;;;;;;;3.20;1.30;;;;;;;;;;106955;1274;25420;-78
2023/07/28 00:41:14;;;;;;;3.80;1.50;;;;;;;;;;106989;1258;23856;-80
2023/07/28 00:44:02;;;;;;;3.00;1.50;;;;;;;;;;106931;1274;22522;-82
2023/07/28 00:46:29;;;;;;;3.40;1.50;;;;;;;;;;107210;1274;23131;-82
2023/07/28 00:48:58;;;;;;;4.10;1.90;;;;;;;;;;107023;1274;24290;-80
2023/07/28 00:51:41;;;;;;;3.10;1.50;;;;;;;;;;107134;1255;24239;-79
2023/07/28 00:54:08;;;;;;;4.00;1.50;;;;;;;;;;106985;1274;22463;-82
2023/07/28 00:56:35;;;;;;;5.10;1.20;;;;;;;;;;107197;1274;22533;-77
2023/07/28 00:59:02;;;;;;;2.60;1.40;;;;;;;;;;107146;1274;22627;-79
2023/07/28 01:01:29;;;;;;;3.60;1.80;;;;;;;;;;106958;1267;24244;-82
2023/07/28 01:03:56;;;;;;;3.30;1.50;;;;;;;;;;106982;1274;22523;-77
2023/07/28 01:06:32;;;;;;;3.50;1.70;;;;;;;;;;106948;1275;24225;-84
2023/07/28 01:09:05;;;;;;;3.50;1.70;;;;;;;;;;106953;1274;22935;-84
2023/07/28 01:11:35;;;;;;;3.80;1.40;;;;;;;;;;107023;1257;22572;-80
2023/07/28 01:14:03;;;;;;;2.80;1.40;;;;;;;;;;106990;1274;25401;-82
2023/07/28 01:16:35;;;;;;;3.70;1.40;;;;;;;;;;106979;1274;22525;-83
2023/07/28 01:19:04;;;;;;;4.80;1.60;;;;;;;;;;106950;1274;22507;-85
2023/07/28 01:21:32;;;;;;;3.60;1.40;;;;;;;;;;106986;1274;25223;-82
2023/07/28 01:24:05;;;;;;;4.60;1.70;;;;;;;;;;107051;1274;22524;-83
2023/07/28 01:26:36;;;;;;;3.80;1.60;;;;;;;;;;106995;1275;25386;-82
2023/07/28 01:29:03;;;;;;;3.90;1.30;;;;;;;;;;106986;1274;25338;-78
2023/07/28 01:31:31;;;;;;;3.10;1.50;;;;;;;;;;107217;1257;24200;-82
2023/07/28 01:33:57;;;;;;;4.90;1.50;;;;;;;;;;107119;1274;25224;-80
2023/07/28 01:36:24;;;;;;;2.70;1.30;;;;;;;;;;107199;1274;22524;-79
2023/07/28 01:38:51;;;;;;;3.90;1.50;;;;;;;;;;106981;1274;22518;-85
2023/07/28 01:41:18;;;;;;;2.70;1.40;;;;;;;;;;106930;1257;25424;-85
2023/07/28 01:43:45;;;;;;;3.00;1.30;;;;;;;;;;106958;1274;25265;-78
2023/07/28 01:46:11;;;;;;;3.00;1.40;;;;;;;;;;106980;1274;25330;-80
2023/07/28 01:48:38;;;;;;;2.20;1.10;;;;;;;;;;107122;1274;22557;-77
2023/07/28 01:51:05;;;;;;;2.60;1.20;;;;;;;;;;107195;1274;22537;-77
2023/07/28 01:53:37;;;;;;;2.40;1.20;;;;;;;;;;107183;1258;26590;-84
2023/07/28 01:56:04;;;;;;;2.60;1.20;;;;;;;;;;106985;1275;25371;-78
2023/07/28 01:58:32;;;;;;;2.10;1.10;;;;;;;;;;106995;1274;25340;-82
2023/07/28 02:00:59;;;;;;;2.60;1.10;;;;;;;;;;106967;1274;23866;-79
2023/07/28 02:03:26;;;;;;;2.90;1.00;;;;;;;;;;107003;1260;22646;-78
2023/07/28 02:05:52;;;;;;;2.10;1.10;;;;;;;;;;106969;1273;25275;-82
2023/07/28 02:08:19;;;;;;;2.30;1.10;;;;;;;;;;106996;1273;22485;-82
2023/07/28 02:10:49;;;;;;;2.50;1.20;;;;;;;;;;107147;1274;22538;-84
2023/07/28 02:13:21;;;;;;;1.90;1.10;;;;;;;;;;107146;1257;24218;-85
2023/07/28 02:15:50;;;;;;;3.80;1.30;;;;;;;;;;107003;1274;24344;-80
2023/07/28 02:18:17;;;;;;;3.10;1.10;;;;;;;;;;107243;1274;22520;-81
2023/07/28 02:20:44;;;;;;;2.80;1.10;;;;;;;;;;107201;1273;25318;-79
2023/07/28 02:23:11;;;;;;;3.00;1.10;;;;;;;;;;106997;1262;22517;-83
2023/07/28 02:25:40;;;;;;;2.20;1.10;;;;;;;;;;106973;1274;23895;-78
2023/07/28 02:28:09;;;;;;;4.50;1.20;;;;;;;;;;107148;1274;22545;-83
2023/07/28 02:30:36;;;;;;;2.70;1.10;;;;;;;;;;106983;1275;22543;-81
2023/07/28 02:33:03;;;;;;;3.40;1.10;;;;;;;;;;107200;1274;22478;-78
2023/07/28 02:35:31;;;;;;;2.30;1.00;;;;;;;;;;107056;1272;22583;-81
2023/07/28 02:38:08;;;;;;;3.30;1.10;;;;;;;;;;106941;1275;25357;-80
2023/07/28 02:40:35;;;;;;;2.20;0.80;;;;;;;;;;107034;1275;23277;-78
2023/07/28 02:43:02;;;;;;;3.20;1.00;;;;;;;;;;106936;1257;25017;-84
2023/07/28 02:45:30;;;;;;;1.90;0.90;;;;;;;;;;106898;1275;23168;-85
2023/07/28 02:47:57;;;;;;;1.70;0.90;;;;;;;;;;106941;1275;25223;-79
2023/07/28 02:50:23;;;;;;;2.20;0.90;;;;;;;;;;106966;1275;24228;-84
2023/07/28 02:52:50;;;;;;;2.00;0.80;;;;;;;;;;106950;1254;25259;-82
2023/07/28 02:55:17;;;;;;;2.00;0.80;;;;;;;;;;106971;1275;24347;-78
2023/07/28 02:57:47;;;;;;;2.10;0.80;;;;;;;;;;106942;1275;22483;-82
2023/07/28 03:00:14;;;;;;;3.30;0.90;;;;;;;;;;106902;1275;25268;-82
2023/07/28 03:02:41;;;;;;;2.00;0.90;;;;;;;;;;106914;1273;22520;-78
2023/07/28 03:05:11;;;;;;;2.20;0.80;;;;;;;;;;107052;1257;22517;-79
2023/07/28 03:07:55;;;;;;;1.30;0.80;;;;;;;;;;106992;1275;23780;-77
2023/07/28 03:10:25;;;;;;;2.60;0.80;;;;;;;;;;107134;1274;22536;-83
2023/07/28 03:12:52;;;;;;;1.20;0.80;;;;;;;;;;106999;1274;22648;-76
2023/07/28 03:15:19;;;;;;;1.50;0.50;;;;;;;;;;106904;1261;23002;-82
2023/07/28 03:17:58;;;;;;;2.00;0.70;;;;;;;;;;107166;1274;22528;-81
2023/07/28 03:20:25;;;;;;;1.90;0.80;;;;;;;;;;106948;1274;22776;-79
2023/07/28 03:22:52;;;;;;;1.70;0.80;;;;;;;;;;107190;1274;22481;-83
2023/07/28 03:25:19;;;;;;;1.10;0.60;;;;;;;;;;106990;1268;22523;-81
2023/07/28 03:27:53;;;;;;;1.30;0.60;;;;;;;;;;106993;1274;22662;-78
2023/07/28 03:30:22;;;;;;;1.90;0.70;;;;;;;;;;106981;1274;22540;-83
2023/07/28 03:32:49;;;;;;;1.50;0.60;;;;;;;;;;107151;1274;23274;-80
2023/07/28 03:35:16;;;;;;;1.50;0.70;;;;;;;;;;106973;1258;25344;-77
2023/07/28 03:37:50;;;;;;;1.10;0.70;;;;;;;;;;106947;1274;24188;-83
2023/07/28 03:40:27;;;;;;;1.40;0.70;;;;;;;;;;107167;1274;24193;-79
2023/07/28 03:42:55;;;;;;;2.50;0.70;;;;;;;;;;106997;1274;22531;-80
2023/07/28 03:45:21;;;;;;;1.60;0.90;;;;;;;;;;107177;1274;24249;-80
2023/07/28 03:47:48;;;;;;;1.90;0.80;;;;;;;;;;106982;1273;22949;-81
2023/07/28 03:50:15;;;;;;;3.60;0.70;;;;;;;;;;106932;1274;25594;-77
2023/07/28 03:52:42;;;;;;;1.20;0.70;;;;;;;;;;107150;1274;23922;-80
2023/07/28 03:55:09;;;;;;;1.30;0.60;;;;;;;;;;106955;1257;22541;-81
2023/07/28 03:57:36;;;;;;;3.30;0.70;;;;;;;;;;107209;1274;22626;-78
2023/07/28 04:00:03;;;;;;;1.80;0.70;;;;;;;;;;106982;1274;22527;-80
2023/07/28 04:02:39;;;;;;;1.20;0.70;;;;;;;;;;107173;1274;25237;-78
2023/07/28 04:05:06;;;;;;;3.10;0.70;;;;;;;;;;106954;1274;22513;-85
2023/07/28 04:07:36;;;;;;;1.70;0.70;;;;;;;;;;106944;1274;24190;-83
2023/07/28 04:10:02;;;;;;;1.00;0.70;;;;;;;;;;107134;1274;22510;-85
2023/07/28 04:12:34;;;;;;;0.90;0.60;;;;;;;;;;106963;1274;22588;-80
2023/07/28 04:15:16;;;;;;;1.20;0.60;;;;;;;;;;106981;1258;25412;-82
2023/07/28 04:17:50;;;;;;;1.50;0.70;;;;;;;;;;107205;1274;22570;-82
2023/07/28 04:20:17;;;;;;;1.70;0.60;;;;;;;;;;106964;1274;24300;-79
2023/07/28 04:22:44;;;;;;;1.10;0.60;;;;;;;;;;106946;1274;22638;-83
2023/07/28 04:25:24;;;;;;;;;;;;;;;;;;;;;
2023/07/28 04:27:59;;;;;;;1.40;0.70;;;;;;;;;;107165;1274;24221;-82
2023/07/28 04:30:29;;;;;;;1.70;0.60;;;;;;;;;;107020;1274;22617;-80
2023/07/28 04:32:58;;;;;;;2.50;0.60;;;;;;;;;;107165;1274;22533;-85
2023/07/28 04:35:51;;;;;;;;;;;;;;;;;;;;;
2023/07/28 04:38:33;;;;;;;1.60;0.50;;;;;;;;;;107177;1272;22490;-82
2023/07/28 04:41:02;;;;;;;1.70;0.60;;;;;;;;;;107003;1274;25527;-78
2023/07/28 04:43:44;;;;;;;1.60;0.60;;;;;;;;;;107040;1274;24360;-82
2023/07/28 04:46:20;;;;;;;3.00;0.70;;;;;;;;;;103136;1261;5147774;-84
2023/07/28 04:48:51;;;;;;;2.40;0.60;;;;;;;;;;106990;1274;23309;-78
2023/07/28 04:51:48;;;;;;;2.30;0.80;;;;;;;;;;106811;1274;22534;-82
2023/07/28 04:54:35;;;;;;;2.40;0.70;;;;;;;;;;106841;1274;22520;-77
2023/07/28 04:57:02;;;;;;;2.60;0.70;;;;;;;;;;106906;1274;22764;-83
2023/07/28 04:59:42;;;;;;;1.90;0.70;;;;;;;;;;106939;1274;22517;-82
2023/07/28 05:02:17;;;;;;;1.00;0.60;;;;;;;;;;107155;1274;22529;-82
2023/07/28 05:04:46;;;;;;;1.80;0.60;;;;;;;;;;106985;1274;24310;-83
2023/07/28 05:07:16;;;;;;;1.70;0.60;;;;;;;;;;107191;1258;22792;-81
2023/07/28 05:09:46;;;;;;;2.40;0.60;;;;;;;;;;106960;1274;24368;-85
2023/07/28 05:12:13;;;;;;;1.60;0.50;;;;;;;;;;106998;1274;22515;-84
2023/07/28 05:14:44;;;;;;;1.50;0.50;;;;;;;;;;107017;1274;24218;-82
2023/07/28 05:17:11;;;;;;;3.10;0.70;;;;;;;;;;106924;1257;25459;-83
2023/07/28 05:19:58;;;;;;;1.90;0.60;;;;;;;;;;106783;1274;23529;-79
2023/07/28 05:22:39;;;;;;;2.30;0.60;;;;;;;;;;106991;1274;22544;-80
2023/07/28 05:25:07;;;;;;;1.60;0.80;;;;;;;;;;106921;1274;22771;-82
2023/07/28 05:27:36;;;;;;;1.30;0.50;;;;;;;;;;107119;1257;22782;-77
2023/07/28 05:30:02;;;;;;;3.80;0.80;;;;;;;;;;106950;1274;24193;-84
2023/07/28 05:32:49;;;;;;;2.10;0.70;;;;;;;;;;107379;1272;22536;-81
2023/07/28 05:35:31;;;;;;;;;;;;;;;;;;;;;
2023/07/28 05:37:58;;;;;;;3.30;0.80;;;;;;;;;;107136;1256;22528;-80
2023/07/28 05:40:25;;;;;;;3.70;1.00;;;;;;;;;;107085;1274;26446;-82
2023/07/28 05:42:51;;;;;;;3.90;0.80;;;;;;;;;;107001;1274;25223;-82
2023/07/28 05:45:18;;;;;;;4.30;0.70;;;;;;;;;;107178;1274;23891;-78
2023/07/28 05:47:45;;;;;;;3.70;0.70;;;;;;;;;;106941;1258;22520;-78
2023/07/28 05:50:13;;;;;;;4.70;1.00;;;;;;;;;;106943;1275;22549;-85
2023/07/28 05:52:39;;;;;;;5.40;0.80;;;;;;;;;;106976;1274;23873;-77
2023/07/28 05:55:06;;;;;;;4.20;0.80;;;;;;;;;;107123;1275;22489;-78
2023/07/28 05:57:33;;;;;;;3.60;1.00;;;;;;;;;;106918;1259;22516;-80
2023/07/28 06:00:09;;;;;;;2.70;0.90;;;;;;;;;;107071;1274;23880;-81
2023/07/28 06:02:45;;;;;;;5.40;0.80;;;;;;;;;;107078;1275;25402;-79
2023/07/28 06:05:22;;;;;;;2.30;0.70;;;;;;;;;;106939;1275;22588;-82
2023/07/28 06:07:52;;;;;;;3.00;0.70;;;;;;;;;;106928;1261;24259;-84
2023/07/28 06:10:19;;;;;;;2.30;0.80;;;;;;;;;;106953;1275;25526;-78
2023/07/28 06:12:55;;;;;;;2.40;0.80;;;;;;;;;;107153;1275;24200;-84
2023/07/28 06:15:21;;;;;;;2.30;0.60;;;;;;;;;;106959;1269;24334;-79
2023/07/28 06:17:48;;;;;;;3.90;0.80;;;;;;;;;;106966;1275;23085;-79
2023/07/28 06:20:15;;;;;;;2.40;0.70;;;;;;;;;;106958;1275;22486;-80
2023/07/28 06:22:42;;;;;;;3.60;0.70;;;;;;;;;;106921;1275;22531;-81
2023/07/28 06:25:16;;;;;;;3.30;0.80;;;;;;;;;;106939;1275;26477;-84
2023/07/28 06:27:51;;;;;;;1.40;0.60;;;;;;;;;;106957;1259;23097;-83
2023/07/28 06:30:17;;;;;;;2.30;0.70;;;;;;;;;;106940;1274;22525;-82
2023/07/28 06:32:47;;;;;;;1.70;0.60;;;;;;;;;;106902;1275;22536;-81
2023/07/28 06:35:17;;;;;;;2.60;0.60;;;;;;;;;;106932;1275;22514;-85
2023/07/28 06:37:46;;;;;;;1.20;0.60;;;;;;;;;;107006;1256;22527;-85
2023/07/28 06:40:13;;;;;;;1.90;0.50;;;;;;;;;;106936;1275;22521;-84
2023/07/28 06:42:40;;;;;;;3.80;0.60;;;;;;;;;;107202;1275;23177;-78
2023/07/28 06:45:08;;;;;;;2.70;0.50;;;;;;;;;;106935;1275;24361;-80
2023/07/28 06:47:35;;;;;;;1.80;0.60;;;;;;;;;;106917;1258;22995;-84
2023/07/28 06:50:02;;;;;;;2.00;0.80;;;;;;;;;;106909;1275;22576;-85
2023/07/28 06:52:34;;;;;;;2.20;0.70;;;;;;;;;;106971;1275;24406;-82
2023/07/28 06:55:01;;;;;;;3.90;0.80;;;;;;;;;;107074;1275;22527;-80
2023/07/28 06:57:31;;;;;;;2.60;0.80;;;;;;;;;;106896;1253;25396;-86
2023/07/28 07:00:01;;;;;;;7.00;1.00;;;;;;;;;;106887;1275;24242;-79
2023/07/28 07:02:28;;;;;;;3.50;0.50;;;;;;;;;;107075;1275;25440;-81
2023/07/28 07:04:55;;;;;;;2.30;0.70;;;;;;;;;;106941;1275;24185;-84
2023/07/28 07:07:42;;;;;;;2.90;0.80;;;;;;;;;;106969;1275;26490;-80
2023/07/28 07:10:24;;;;;;;;;;;;;;;;;;;;;
2023/07/28 07:12:52;;;;;;;5.80;1.00;;;;;;;;;;106852;1274;22517;-79
2023/07/28 07:15:22;;;;;;;4.80;0.90;;;;;;;;;;107079;1274;22534;-82
2023/07/28 07:17:50;;;;;;;5.30;1.10;;;;;;;;;;107115;1274;22731;-78
2023/07/28 07:20:17;;;;;;;4.10;0.80;;;;;;;;;;107122;1270;24255;-78
2023/07/28 07:22:43;;;;;;;5.30;1.10;;;;;;;;;;107099;1274;22525;-78
2023/07/28 07:25:23;;;;;;;5.50;1.30;;;;;;;;;;107042;1274;23285;-80
2023/07/28 07:27:56;;;;;;;2.90;0.80;;;;;;;;;;106822;1273;22518;-82
2023/07/28 07:30:43;;;;;;;6.20;1.00;;;;;;;;;;106828;1257;22526;-80
2023/07/28 07:33:10;;;;;;;4.50;1.00;;;;;;;;;;106896;1271;22627;-82
2023/07/28 07:35:38;;;;;;;4.80;1.00;;;;;;;;;;106948;1274;22485;-79
2023/07/28 07:38:08;;;;;;;3.70;0.70;;;;;;;;;;106828;1274;22552;-81
2023/07/28 07:40:36;;;;;;;4.10;1.10;;;;;;;;;;107047;1257;22953;-80
2023/07/28 07:43:05;;;;;;;3.70;0.90;;;;;;;;;;107460;1274;22523;-79
2023/07/28 07:45:44;;;;;;;4.80;1.00;;;;;;;;;;107159;1274;22656;-79
2023/07/28 07:48:10;;;;;;;5.70;1.20;;;;;;;;;;107090;1274;22713;-85
2023/07/28 07:50:37;;;;;;;6.70;1.30;;;;;;;;;;107179;1253;22521;-79
2023/07/28 07:53:05;;;;;;;6.40;1.40;;;;;;;;;;106995;1274;22517;-85
2023/07/28 07:55:31;;;;;;;5.20;1.10;;;;;;;;;;107091;1274;22713;-78
2023/07/28 07:58:06;;;;;;;4.30;1.20;;;;;;;;;;107002;1274;22541;-80
2023/07/28 08:00:35;;;;;;;2.70;1.00;;;;;;;;;;107049;1258;22590;-82
2023/07/28 08:03:05;;;;;;;7.00;1.00;;;;;;;;;;106946;1262;22518;-77
2023/07/28 08:05:32;;;;;;;5.70;1.00;;;;;;;;;;106843;1274;22598;-80
2023/07/28 08:08:09;;;;;;;2.20;0.90;;;;;;;;;;107105;1274;25345;-82
2023/07/28 08:10:46;;;;;;;5.30;1.50;;;;;;;;;;107045;1257;25357;-77
2023/07/28 08:13:16;;;;;;;3.30;1.20;;;;;;;;;;107026;1274;24270;-77
2023/07/28 08:15:55;;;;;;;2.30;1.00;;;;;;;;;;106953;1272;23902;-78
2023/07/28 08:18:34;;;;;;;3.70;1.00;;;;;;;;;;107113;1273;22507;-77
2023/07/28 08:21:01;;;;;;;2.00;0.90;;;;;;;;;;107146;1273;24255;-82
2023/07/28 08:23:28;;;;;;;4.30;1.00;;;;;;;;;;106998;1273;22529;-77
2023/07/28 08:25:55;;;;;;;4.20;1.20;;;;;;;;;;106939;1273;26445;-81
2023/07/28 08:28:22;;;;;;;3.10;1.10;;;;;;;;;;107182;1273;25363;-78
2023/07/28 08:30:58;;;;;;;3.20;1.00;;;;;;;;;;106937;1260;25284;-78
2023/07/28 08:33:35;;;;;;;2.60;1.20;;;;;;;;;;107083;1273;25534;-84
2023/07/28 08:36:05;;;;;;;2.80;1.20;;;;;;;;;;107178;1273;22523;-81
2023/07/28 08:38:32;;;;;;;4.50;1.40;;;;;;;;;;106920;1273;22569;-85
2023/07/28 08:40:59;;;;;;;3.60;1.20;;;;;;;;;;107192;1256;24248;-77
2023/07/28 08:43:33;;;;;;;2.60;1.10;;;;;;;;;;106913;1266;22514;-81
2023/07/28 08:46:09;;;;;;;2.50;1.20;;;;;;;;;;107239;1266;22769;-78
2023/07/28 08:48:36;;;;;;;3.50;1.20;;;;;;;;;;107254;1266;24212;-80
2023/07/28 08:51:04;;;;;;;2.70;1.30;;;;;;;;;;106916;1270;22531;-77
2023/07/28 08:53:38;;;;;;;3.10;1.10;;;;;;;;;;106969;1268;22598;-79
2023/07/28 08:56:06;;;;;;;4.10;1.40;;;;;;;;;;106876;1274;26616;-83
2023/07/28 08:58:33;;;;;;;3.70;1.30;;;;;;;;;;106954;1271;25336;-82
2023/07/28 09:01:01;;;;;;;2.30;1.20;;;;;;;;;;107049;1256;24925;-79
2023/07/28 09:03:50;;;;;;;2.80;1.30;;;;;;;;;;107252;1266;22517;-76
2023/07/28 09:06:27;;;;;;;3.10;1.30;;;;;;;;;;107145;1266;25399;-79
2023/07/28 09:08:56;;;;;;;3.80;1.20;;;;;;;;;;107028;1269;24208;-77
2023/07/28 09:11:26;;;;;;;4.30;1.20;;;;;;;;;;107201;1266;23119;-79
2023/07/28 09:13:55;;;;;;;2.10;1.20;;;;;;;;;;107232;1266;22521;-78
2023/07/28 09:16:24;;;;;;;2.00;1.20;;;;;;;;;;107057;1272;24168;-79
2023/07/28 09:18:52;;;;;;;1.90;1.20;;;;;;;;;;107098;1269;25495;-78
2023/07/28 09:21:20;;;;;;;2.90;1.20;;;;;;;;;;107024;1256;22520;-79
2023/07/28 09:23:48;;;;;;;2.00;1.10;;;;;;;;;;107255;1270;24274;-77
2023/07/28 09:26:15;;;;;;;4.20;1.40;;;;;;;;;;107038;1272;22517;-86
2023/07/28 09:28:45;;;;;;;3.90;1.40;;;;;;;;;;106983;1266;22524;-79
2023/07/28 09:31:14;;;;;;;4.70;1.60;;;;;;;;;;107043;1257;25257;-79
2023/07/28 09:33:46;;;;;;;3.30;1.40;;;;;;;;;;107101;1266;22488;-76
2023/07/28 09:36:15;;;;;;;3.70;1.20;;;;;;;;;;106942;1273;24252;-82
2023/07/28 09:38:42;;;;;;;2.20;1.40;;;;;;;;;;107269;1266;22530;-77
2023/07/28 09:41:12;;;;;;;3.70;1.50;;;;;;;;;;106985;1250;22540;-86
2023/07/28 09:43:43;;;;;;;3.20;1.20;;;;;;;;;;107158;1266;25868;-77
2023/07/28 09:46:11;;;;;;;3.40;1.40;;;;;;;;;;107136;1262;25334;-77
2023/07/28 09:48:39;;;;;;;3.90;1.40;;;;;;;;;;107013;1271;22520;-80
2023/07/28 09:51:11;;;;;;;6.40;1.60;;;;;;;;;;107150;1251;22523;-79
2023/07/28 09:53:44;;;;;;;3.80;1.60;;;;;;;;;;106984;1272;22533;-79
2023/07/28 09:56:15;;;;;;;6.20;1.90;;;;;;;;;;107139;1251;24183;-78
2023/07/28 09:58:44;;;;;;;7.00;1.60;;;;;;;;;;107206;1274;22551;-80
2023/07/28 10:01:10;;;;;;;3.70;1.60;;;;;;;;;;107206;1262;22521;-77
2023/07/28 10:03:37;;;;;;;3.50;1.60;;;;;;;;;;106950;1274;22517;-78
2023/07/28 10:06:05;;;;;;;3.20;1.50;;;;;;;;;;107162;1252;22494;-81
2023/07/28 10:08:32;;;;;;;3.30;1.20;;;;;;;;;;107131;1266;22646;-78
2023/07/28 10:11:04;;;;;;;4.30;1.60;;;;;;;;;;107189;1273;22541;-84
2023/07/28 10:13:42;;;;;;;5.40;1.50;;;;;;;;;;107301;1257;22647;-84
2023/07/28 10:16:09;;;;;;;3.50;1.60;;;;;;;;;;107180;1272;25107;-80
2023/07/28 10:18:36;;;;;;;6.80;1.70;;;;;;;;;;107300;1273;25366;-83
2023/07/28 10:29:21;;;;;;;4.50;1.10;;;;;;;;;;105577;1285;546030;-79
2023/07/28 10:31:50;;;;;;;3.40;1.50;;;;;;;;;;106207;1272;25419;-82
2023/07/28 10:34:17;;;;;;;2.30;1.40;;;;;;;;;;106189;1285;26622;-77
2023/07/28 10:36:45;;;;;;;2.40;1.20;;;;;;;;;;106108;1285;24237;-84
2023/07/28 10:39:13;;;;;;;4.20;1.60;;;;;;;;;;106110;1282;22535;-78
2023/07/28 10:41:42;;;;;;;5.10;1.50;;;;;;;;;;103528;1272;3496844;-82
2023/07/28 10:44:08;;;;;;;4.20;1.80;;;;;;;;;;106346;1279;22663;-76
2023/07/28 10:46:35;;;;;;;3.40;1.60;;;;;;;;;;106085;1281;24616;-76
2023/07/28 10:49:05;;;;;;;4.00;1.80;;;;;;;;;;106721;1280;22535;-82
2023/07/28 10:51:33;;;;;;;4.40;1.70;;;;;;;;;;106774;1280;24225;-82
2023/07/28 10:54:02;;;;;;;3.70;1.40;;;;;;;;;;106843;1277;22557;-82
2023/07/28 10:56:31;;;;;;;2.80;1.50;;;;;;;;;;106857;1278;25520;-76
2023/07/28 10:58:57;;;;;;;3.40;1.80;;;;;;;;;;106708;1275;22658;-77
2023/07/28 11:01:32;;;;;;;2.80;1.60;;;;;;;;;;106896;1259;24341;-82
2023/07/28 11:04:05;;;;;;;3.20;1.70;;;;;;;;;;106735;1275;25233;-77
2023/07/28 11:06:32;;;;;;;6.10;1.80;;;;;;;;;;106548;1275;22519;-79
2023/07/28 11:08:59;;;;;;;4.20;1.70;;;;;;;;;;106701;1272;22545;-82
2023/07/28 11:11:28;;;;;;;6.40;1.60;;;;;;;;;;106812;1262;22500;-77
2023/07/28 11:14:00;;;;;;;2.90;1.70;;;;;;;;;;106912;1275;22555;-84
2023/07/28 11:16:26;;;;;;;5.50;2.00;;;;;;;;;;107127;1268;24311;-79
2023/07/28 11:18:55;;;;;;;4.30;1.60;;;;;;;;;;106980;1276;22528;-85
2023/07/28 11:21:22;;;;;;;4.50;2.00;;;;;;;;;;106868;1259;22524;-82
2023/07/28 11:23:48;;;;;;;3.60;1.60;;;;;;;;;;106972;1275;22549;-77
2023/07/28 11:26:17;;;;;;;4.00;1.70;;;;;;;;;;107027;1269;25409;-79
2023/07/28 11:28:43;;;;;;;4.10;1.50;;;;;;;;;;106945;1276;22149;-77
2023/07/28 11:31:10;;;;;;;4.30;1.50;;;;;;;;;;106902;1253;24290;-80
2023/07/28 11:33:36;;;;;;;3.90;1.60;;;;;;;;;;107038;1276;24180;-77
2023/07/28 11:36:02;;;;;;;2.40;1.30;;;;;;;;;;107186;1276;24844;-80
2023/07/28 11:38:32;;;;;;;2.70;1.50;;;;;;;;;;107433;1272;24190;-79
2023/07/28 11:40:59;;;;;;;2.60;1.50;;;;;;;;;;107038;1272;22526;-78
2023/07/28 11:43:29;;;;;;;2.70;1.40;;;;;;;;;;107002;1276;25220;-80
2023/07/28 11:45:55;;;;;;;4.20;1.60;;;;;;;;;;106878;1276;24394;-85
2023/07/28 11:48:21;;;;;;;4.90;1.50;;;;;;;;;;107034;1276;24368;-82
2023/07/28 11:50:48;;;;;;;3.90;1.70;;;;;;;;;;107145;1276;25343;-78
2023/07/28 11:53:15;;;;;;;5.40;1.50;;;;;;;;;;106970;1257;22995;-86
2023/07/28 11:55:41;;;;;;;2.40;1.50;;;;;;;;;;106988;1276;22553;-85
2023/07/28 11:58:08;;;;;;;3.30;1.50;;;;;;;;;;106883;1275;25357;-78
2023/07/28 12:00:35;;;;;;;2.80;1.60;;;;;;;;;;106969;1276;24819;-83
2023/07/28 12:03:14;;;;;;;3.00;1.30;;;;;;;;;;106870;1260;22775;-80
2023/07/28 12:05:43;;;;;;;3.00;1.40;;;;;;;;;;107005;1276;24225;-85
2023/07/28 12:08:09;;;;;;;4.70;1.40;;;;;;;;;;107084;1276;22535;-78
2023/07/28 12:10:35;;;;;;;3.40;1.50;;;;;;;;;;106915;1276;22538;-84
2023/07/28 12:13:05;;;;;;;6.70;1.70;;;;;;;;;;106814;1259;22599;-79
2023/07/28 12:15:32;;;;;;;7.10;1.80;;;;;;;;;;106911;1276;22642;-80
2023/07/28 12:18:04;;;;;;;4.00;1.70;;;;;;;;;;107005;1276;24268;-85
2023/07/28 12:20:34;;;;;;;3.90;1.80;;;;;;;;;;106957;1254;24304;-82
2023/07/28 12:23:01;;;;;;;2.50;1.40;;;;;;;;;;106991;1264;24341;-81
2023/07/28 12:25:27;;;;;;;3.40;1.30;;;;;;;;;;106916;1276;22486;-78
2023/07/28 12:27:53;;;;;;;2.90;1.10;;;;;;;;;;106942;1276;26585;-79
2023/07/28 12:30:19;;;;;;;3.60;1.30;;;;;;;;;;107057;1276;22525;-77
2023/07/28 12:32:46;;;;;;;6.20;1.50;;;;;;;;;;107208;1276;23916;-78
2023/07/28 12:35:12;;;;;;;4.50;1.70;;;;;;;;;;106928;1276;22542;-85
2023/07/28 12:37:38;;;;;;;4.80;1.70;;;;;;;;;;106994;1277;24193;-77
2023/07/28 12:40:05;;;;;;;5.30;1.60;;;;;;;;;;106833;1277;24330;-86
2023/07/28 12:42:32;;;;;;;7.60;1.50;;;;;;;;;;107041;1256;22529;-80
2023/07/28 12:44:58;;;;;;;4.30;1.50;;;;;;;;;;106651;1276;23121;-76
2023/07/28 12:47:24;;;;;;;4.50;1.70;;;;;;;;;;106882;1276;22646;-87
2023/07/28 12:49:56;;;;;;;6.50;1.60;;;;;;;;;;106955;1276;22486;-84
2023/07/28 12:52:22;;;;;;;7.20;1.50;;;;;;;;;;107080;1269;22553;-82
2023/07/28 12:54:49;;;;;;;5.00;1.50;;;;;;;;;;106937;1259;22531;-79
2023/07/28 12:57:15;;;;;;;5.30;1.30;;;;;;;;;;106686;1270;22485;-84
2023/07/28 12:59:42;;;;;;;3.00;1.40;;;;;;;;;;107003;1269;22570;-80
2023/07/28 13:02:08;;;;;;;3.80;1.10;;;;;;;;;;106945;1269;24140;-81
2023/07/28 13:04:35;;;;;;;3.50;1.30;;;;;;;;;;106727;1263;22539;-78
2023/07/28 13:07:01;;;;;;;4.30;1.20;;;;;;;;;;106525;1271;24186;-81
2023/07/28 13:09:28;;;;;;;2.70;1.10;;;;;;;;;;106755;1276;22535;-81
2023/07/28 13:11:54;;;;;;;2.00;1.00;;;;;;;;;;106642;1276;22547;-83
2023/07/28 13:14:22;;;;;;;1.80;1.00;;;;;;;;;;107010;1258;22487;-80
2023/07/28 13:16:48;;;;;;;4.00;0.90;;;;;;;;;;107019;1270;25431;-82
2023/07/28 13:19:14;;;;;;;2.70;1.10;;;;;;;;;;107018;1276;23912;-83
2023/07/28 13:21:40;;;;;;;4.60;1.20;;;;;;;;;;107028;1275;22533;-82
2023/07/28 13:24:08;;;;;;;3.80;1.10;;;;;;;;;;107059;1254;22664;-81
2023/07/28 13:26:34;;;;;;;5.20;1.30;;;;;;;;;;107030;1276;22534;-77
2023/07/28 13:29:01;;;;;;;5.40;1.10;;;;;;;;;;106912;1275;24248;-85
2023/07/28 13:31:28;;;;;;;2.60;1.00;;;;;;;;;;106861;1277;22647;-80
2023/07/28 13:34:03;;;;;;;2.20;1.10;;;;;;;;;;106965;1267;24466;-86
2023/07/28 13:36:30;;;;;;;4.70;1.10;;;;;;;;;;106908;1276;24200;-77
2023/07/28 13:38:56;;;;;;;4.40;1.30;;;;;;;;;;107014;1276;25286;-80
2023/07/28 13:41:25;;;;;;;3.20;1.00;;;;;;;;;;106917;1276;22536;-81
2023/07/28 13:43:51;;;;;;;5.90;1.20;;;;;;;;;;107005;1254;22628;-87
2023/07/28 13:46:28;;;;;;;2.70;1.00;;;;;;;;;;107220;1273;22575;-82
2023/07/28 13:48:55;;;;;;;3.80;1.00;;;;;;;;;;106904;1276;22624;-84
2023/07/28 13:51:22;;;;;;;3.60;1.20;;;;;;;;;;106788;1276;24289;-78
2023/07/28 13:53:48;;;;;;;3.20;1.00;;;;;;;;;;106789;1258;23005;-79
2023/07/28 13:56:14;;;;;;;3.70;1.00;;;;;;;;;;106764;1277;22527;-83
2023/07/28 13:58:41;;;;;;;3.40;1.20;;;;;;;;;;106868;1276;25265;-77
2023/07/28 14:01:08;;;;;;;2.40;1.20;;;;;;;;;;106898;1272;25277;-77
2023/07/28 14:03:34;;;;;;;2.50;1.40;;;;;;;;;;106963;1275;24679;-80
2023/07/28 14:06:06;;;;;;;1.90;1.00;;;;;;;;;;107019;1259;22527;-81
2023/07/28 14:08:32;;;;;;;2.70;0.90;;;;;;;;;;106916;1276;22564;-83
2023/07/28 14:11:00;;;;;;;1.70;0.90;;;;;;;;;;106883;1276;22545;-80
2023/07/28 14:13:32;;;;;;;2.00;1.10;;;;;;;;;;106636;1277;24183;-79
2023/07/28 14:16:18;;;;;;;1.80;1.10;;;;;;;;;;106775;1276;22666;-83
2023/07/28 14:18:54;;;;;;;3.80;1.00;;;;;;;;;;106961;1276;22566;-78
2023/07/28 14:21:21;;;;;;;2.10;1.20;;;;;;;;;;106849;1276;22524;-83
2023/07/28 14:23:47;;;;;;;1.80;1.10;;;;;;;;;;106952;1276;22523;-77
2023/07/28 14:26:13;;;;;;;2.10;1.00;;;;;;;;;;106961;1267;22548;-78
2023/07/28 14:28:40;;;;;;;2.40;1.00;;;;;;;;;;107164;1276;21823;-78
2023/07/28 14:31:09;;;;;;;1.70;0.90;;;;;;;;;;107003;1266;22639;-81
2023/07/28 14:33:45;;;;;;;3.80;1.30;;;;;;;;;;106887;1276;25360;-77
2023/07/28 14:36:12;;;;;;;4.00;1.10;;;;;;;;;;106900;1260;24303;-82
2023/07/28 14:38:38;;;;;;;2.70;0.90;;;;;;;;;;106996;1275;24237;-82
2023/07/28 14:41:05;;;;;;;3.40;1.30;;;;;;;;;;106961;1275;25343;-81
2023/07/28 14:43:41;;;;;;;3.30;1.20;;;;;;;;;;106774;1272;22531;-76
2023/07/28 14:46:07;;;;;;;3.00;0.80;;;;;;;;;;106923;1259;22531;-79
2023/07/28 14:48:36;;;;;;;1.80;1.20;;;;;;;;;;106826;1269;22527;-81
2023/07/28 14:51:05;;;;;;;2.90;1.20;;;;;;;;;;106895;1270;22538;-84
2023/07/28 14:53:36;;;;;;;2.10;1.10;;;;;;;;;;106904;1274;25346;-79
2023/07/28 14:56:05;;;;;;;2.00;1.00;;;;;;;;;;107032;1259;24147;-85